createdAt,value
2022-08-25T00:00:30.820Z,25.80
2022-08-25T00:01:33.126Z,25.79
2022-08-25T00:02:35.161Z,25.78
2022-08-25T00:03:39.455Z,25.77
2022-08-25T00:04:41.476Z,25.76
2022-08-25T00:05:45.167Z,25.76
2022-08-25T00:06:47.220Z,25.75
2022-08-25T00:07:49.128Z,25.75
2022-08-25T00:08:50.977Z,25.74
2022-08-25T00:09:52.843Z,25.73
2022-08-25T00:11:03.098Z,25.73
2022-08-25T00:11:58.506Z,25.72
2022-08-25T00:13:00.397Z,25.72
2022-08-25T00:14:02.295Z,25.70
2022-08-25T00:15:04.150Z,25.71
2022-08-25T00:16:06.164Z,25.71
2022-08-25T00:17:08.065Z,25.71
2022-08-25T00:18:19.649Z,25.71
2022-08-25T00:19:13.628Z,25.69
2022-08-25T00:20:15.888Z,25.69
2022-08-25T00:21:17.748Z,25.68
2022-08-25T00:22:19.638Z,25.68
2022-08-25T00:23:21.508Z,25.67
2022-08-25T00:24:23.361Z,25.65
2022-08-25T00:25:25.222Z,25.65
2022-08-25T00:26:28.090Z,25.67
2022-08-25T00:27:29.980Z,25.68
2022-08-25T00:28:31.872Z,25.68
2022-08-25T00:29:34.001Z,25.68
2022-08-25T00:30:35.977Z,25.67
2022-08-25T00:31:38.558Z,25.68
2022-08-25T00:32:41.136Z,25.67
2022-08-25T00:33:43.041Z,25.67
2022-08-25T00:34:44.904Z,25.65
2022-08-25T00:35:46.761Z,25.64
2022-08-25T00:36:48.922Z,25.62
2022-08-25T00:37:50.823Z,25.62
2022-08-25T00:38:52.714Z,25.62
2022-08-25T00:39:54.608Z,25.61
2022-08-25T00:40:56.527Z,25.61
2022-08-25T00:41:58.388Z,25.60
2022-08-25T00:43:00.247Z,25.59
2022-08-25T00:44:02.135Z,25.58
2022-08-25T00:45:04.055Z,25.59
2022-08-25T00:46:06.144Z,25.57
2022-08-25T00:47:08.000Z,25.56
2022-08-25T00:48:09.848Z,25.55
2022-08-25T00:49:11.751Z,25.54
2022-08-25T00:50:15.710Z,25.54
2022-08-25T00:51:18.275Z,25.52
2022-08-25T00:52:20.129Z,25.51
2022-08-25T00:53:21.993Z,25.51
2022-08-25T00:54:23.880Z,25.50
2022-08-25T00:55:25.744Z,25.49
2022-08-25T00:56:28.203Z,25.48
2022-08-25T00:57:34.493Z,25.49
2022-08-25T00:58:33.752Z,25.50
2022-08-25T00:59:35.635Z,25.49
2022-08-25T01:00:37.830Z,25.48
2022-08-25T01:01:39.811Z,25.47
2022-08-25T01:02:41.702Z,25.47
2022-08-25T01:03:43.610Z,25.46
2022-08-25T01:04:48.912Z,25.45
2022-08-25T01:05:49.145Z,25.45
2022-08-25T01:06:51.065Z,25.43
2022-08-25T01:07:52.907Z,25.44
2022-08-25T01:08:56.559Z,25.42
2022-08-25T01:09:58.429Z,25.42
2022-08-25T01:11:00.430Z,25.41
2022-08-25T01:12:02.275Z,25.40
2022-08-25T01:13:04.014Z,25.36
2022-08-25T01:14:05.849Z,25.40
2022-08-25T01:15:07.712Z,25.38
2022-08-25T01:16:10.440Z,25.35
2022-08-25T01:17:12.223Z,25.35
2022-08-25T01:18:14.065Z,25.34
2022-08-25T01:19:15.887Z,25.32
2022-08-25T01:20:18.065Z,25.31
2022-08-25T01:21:19.810Z,25.30
2022-08-25T01:22:21.940Z,25.27
2022-08-25T01:23:23.777Z,25.27
2022-08-25T01:24:25.616Z,25.26
2022-08-25T01:25:27.486Z,25.24
2022-08-25T01:26:30.705Z,25.23
2022-08-25T01:27:32.781Z,25.20
2022-08-25T01:28:34.614Z,25.20
2022-08-25T01:29:36.453Z,25.20
2022-08-25T01:30:38.700Z,25.20
2022-08-25T01:31:40.650Z,25.20
2022-08-25T01:32:42.462Z,25.20
2022-08-25T01:33:44.288Z,25.20
2022-08-25T01:34:46.039Z,25.20
2022-08-25T01:35:47.951Z,25.19
2022-08-25T01:36:49.988Z,25.18
2022-08-25T01:37:51.816Z,25.17
2022-08-25T01:38:53.653Z,25.16
2022-08-25T01:39:55.536Z,25.14
2022-08-25T01:40:57.443Z,25.11
2022-08-25T01:41:59.314Z,25.10
2022-08-25T01:43:01.152Z,25.08
2022-08-25T01:44:03.492Z,25.08
2022-08-25T01:45:05.329Z,25.06
2022-08-25T01:46:07.349Z,25.06
2022-08-25T01:47:09.279Z,25.04
2022-08-25T01:48:11.123Z,25.03
2022-08-25T01:49:12.964Z,25.03
2022-08-25T01:50:15.093Z,25.03
2022-08-25T01:51:16.971Z,25.02
2022-08-25T01:52:18.801Z,25.02
2022-08-25T01:53:22.259Z,25.02
2022-08-25T01:54:24.092Z,25.01
2022-08-25T01:55:25.920Z,25.00
2022-08-25T01:56:27.893Z,24.96
2022-08-25T01:57:29.716Z,24.94
2022-08-25T01:58:31.546Z,24.95
2022-08-25T01:59:33.297Z,24.93
2022-08-25T02:00:35.544Z,24.92
2022-08-25T02:01:37.467Z,24.92
2022-08-25T02:02:42.475Z,24.91
2022-08-25T02:03:42.952Z,24.90
2022-08-25T02:04:44.780Z,24.91
2022-08-25T02:05:48.098Z,24.90
2022-08-25T02:06:50.501Z,24.91
2022-08-25T02:07:52.352Z,24.90
2022-08-25T02:08:54.173Z,24.90
2022-08-25T02:09:56.000Z,24.90
2022-08-25T02:10:59.760Z,24.89
2022-08-25T02:12:01.639Z,24.89
2022-08-25T02:13:03.485Z,24.88
2022-08-25T02:14:07.137Z,24.88
2022-08-25T02:15:08.967Z,24.88
2022-08-25T02:16:11.408Z,24.87
2022-08-25T02:17:13.165Z,24.85
2022-08-25T02:18:15.048Z,24.83
2022-08-25T02:19:16.888Z,24.86
2022-08-25T02:20:20.238Z,24.86
2022-08-25T02:21:22.171Z,24.86
2022-08-25T02:22:24.045Z,24.86
2022-08-25T02:23:25.896Z,24.84
2022-08-25T02:24:27.739Z,24.83
2022-08-25T02:25:29.564Z,24.83
2022-08-25T02:26:31.907Z,24.82
2022-08-25T02:27:33.778Z,24.83
2022-08-25T02:28:35.595Z,24.84
2022-08-25T02:29:37.489Z,24.84
2022-08-25T02:30:39.576Z,24.83
2022-08-25T02:31:41.364Z,24.83
2022-08-25T02:32:43.221Z,24.82
2022-08-25T02:33:45.088Z,24.82
2022-08-25T02:34:46.920Z,24.82
2022-08-25T02:35:48.649Z,24.83
2022-08-25T02:36:50.586Z,24.84
2022-08-25T02:37:52.485Z,24.84
2022-08-25T02:38:56.151Z,24.85
2022-08-25T02:39:58.031Z,24.85
2022-08-25T02:40:59.999Z,24.86
2022-08-25T02:42:01.748Z,24.88
2022-08-25T02:43:03.630Z,24.89
2022-08-25T02:44:05.466Z,24.88
2022-08-25T02:45:07.298Z,24.87
2022-08-25T02:46:09.800Z,24.86
2022-08-25T02:47:11.679Z,24.87
2022-08-25T02:48:13.548Z,24.85
2022-08-25T02:49:15.424Z,24.84
2022-08-25T02:50:19.082Z,24.85
2022-08-25T02:51:21.008Z,24.83
2022-08-25T02:52:22.871Z,24.83
2022-08-25T02:53:24.762Z,24.83
2022-08-25T02:54:26.587Z,24.84
2022-08-25T02:55:28.419Z,24.83
2022-08-25T02:56:31.178Z,24.82
2022-08-25T02:57:33.028Z,24.82
2022-08-25T02:58:34.985Z,24.82
2022-08-25T02:59:36.849Z,24.81
2022-08-25T03:00:38.802Z,24.80
2022-08-25T03:01:41.785Z,24.80
2022-08-25T03:02:43.590Z,24.79
2022-08-25T03:03:45.509Z,24.80
2022-08-25T03:04:47.737Z,24.75
2022-08-25T03:05:49.618Z,24.79
2022-08-25T03:06:51.547Z,24.79
2022-08-25T03:07:54.065Z,24.77
2022-08-25T03:08:55.951Z,24.76
2022-08-25T03:09:57.804Z,24.76
2022-08-25T03:10:59.743Z,24.77
2022-08-25T03:12:01.569Z,24.76
2022-08-25T03:13:03.409Z,24.76
2022-08-25T03:14:05.293Z,24.75
2022-08-25T03:15:12.841Z,24.74
2022-08-25T03:16:12.437Z,24.74
2022-08-25T03:17:14.772Z,24.75
2022-08-25T03:18:17.128Z,24.76
2022-08-25T03:19:19.126Z,24.77
2022-08-25T03:20:21.626Z,24.80
2022-08-25T03:21:23.488Z,24.80
2022-08-25T03:22:25.333Z,24.81
2022-08-25T03:23:29.038Z,24.83
2022-08-25T03:24:30.935Z,24.82
2022-08-25T03:25:32.795Z,24.83
2022-08-25T03:26:34.954Z,24.84
2022-08-25T03:27:36.818Z,24.84
2022-08-25T03:28:38.671Z,24.85
2022-08-25T03:29:40.580Z,24.85
2022-08-25T03:30:42.859Z,24.85
2022-08-25T03:31:44.872Z,24.85
2022-08-25T03:32:46.902Z,24.86
2022-08-25T03:33:48.770Z,24.86
2022-08-25T03:34:50.661Z,24.86
2022-08-25T03:35:52.593Z,24.87
2022-08-25T03:36:54.558Z,24.87
2022-08-25T03:37:56.419Z,24.87
2022-08-25T03:38:58.273Z,24.86
2022-08-25T03:40:02.169Z,24.86
2022-08-25T03:41:04.049Z,24.87
2022-08-25T03:42:06.223Z,24.88
2022-08-25T03:43:08.095Z,24.88
2022-08-25T03:44:09.949Z,24.90
2022-08-25T03:45:11.896Z,24.89
2022-08-25T03:46:14.325Z,24.89
2022-08-25T03:47:16.238Z,24.90
2022-08-25T03:48:18.112Z,24.91
2022-08-25T03:49:19.984Z,24.91
2022-08-25T03:50:23.004Z,24.92
2022-08-25T03:51:24.900Z,24.91
2022-08-25T03:52:26.853Z,24.90
2022-08-25T03:53:28.720Z,24.92
2022-08-25T03:54:30.577Z,24.93
2022-08-25T03:55:32.575Z,24.93
2022-08-25T03:56:34.740Z,24.93
2022-08-25T03:57:36.590Z,24.95
2022-08-25T03:58:38.493Z,24.96
2022-08-25T03:59:40.374Z,24.96
2022-08-25T04:00:42.585Z,24.99
2022-08-25T04:01:44.517Z,25.00
2022-08-25T04:02:46.394Z,25.01
2022-08-25T04:03:48.212Z,25.02
2022-08-25T04:04:50.073Z,25.03
2022-08-25T04:05:52.668Z,25.03
2022-08-25T04:06:54.882Z,25.04
2022-08-25T04:07:56.773Z,25.05
2022-08-25T04:08:58.601Z,25.06
2022-08-25T04:10:00.452Z,25.07
2022-08-25T04:11:02.353Z,25.08
2022-08-25T04:12:04.212Z,25.09
2022-08-25T04:13:06.066Z,25.09
2022-08-25T04:14:07.923Z,25.09
2022-08-25T04:15:11.221Z,25.09
2022-08-25T04:16:13.463Z,25.10
2022-08-25T04:17:15.278Z,25.12
2022-08-25T04:18:17.127Z,25.14
2022-08-25T04:19:18.993Z,25.15
2022-08-25T04:20:22.182Z,25.16
2022-08-25T04:21:24.087Z,25.17
2022-08-25T04:22:25.978Z,25.18
2022-08-25T04:23:29.645Z,25.20
2022-08-25T04:24:31.500Z,25.23
2022-08-25T04:25:33.366Z,25.26
2022-08-25T04:26:35.644Z,25.29
2022-08-25T04:27:37.512Z,25.30
2022-08-25T04:28:39.366Z,25.33
2022-08-25T04:29:41.656Z,25.36
2022-08-25T04:30:43.612Z,25.35
2022-08-25T04:31:45.598Z,25.38
2022-08-25T04:32:49.176Z,25.37
2022-08-25T04:33:51.045Z,25.39
2022-08-25T04:34:52.896Z,25.40
2022-08-25T04:35:54.750Z,25.41
2022-08-25T04:36:56.750Z,25.41
2022-08-25T04:37:58.674Z,25.40
2022-08-25T04:39:00.522Z,25.42
2022-08-25T04:40:02.555Z,25.43
2022-08-25T04:41:04.366Z,25.45
2022-08-25T04:42:06.264Z,25.46
2022-08-25T04:43:08.232Z,25.48
2022-08-25T04:44:10.082Z,25.50
2022-08-25T04:45:11.935Z,25.53
2022-08-25T04:46:15.166Z,25.56
2022-08-25T04:47:18.842Z,25.56
2022-08-25T04:48:20.708Z,25.58
2022-08-25T04:49:22.568Z,25.61
2022-08-25T04:50:24.837Z,25.60
2022-08-25T04:51:26.694Z,25.61
2022-08-25T04:52:28.590Z,25.61
2022-08-25T04:53:30.546Z,25.61
2022-08-25T04:54:37.110Z,25.62
2022-08-25T04:55:36.094Z,25.64
2022-08-25T04:56:38.051Z,25.65
2022-08-25T04:57:41.750Z,25.68
2022-08-25T04:58:43.624Z,25.70
2022-08-25T04:59:45.466Z,25.72
2022-08-25T05:00:47.435Z,25.73
2022-08-25T05:01:49.727Z,25.75
2022-08-25T05:02:52.991Z,25.77
2022-08-25T05:03:54.883Z,25.77
2022-08-25T05:04:56.702Z,25.80
2022-08-25T05:05:58.567Z,25.81
2022-08-25T05:07:00.724Z,25.82
2022-08-25T05:08:02.712Z,25.82
2022-08-25T05:09:04.645Z,25.83
2022-08-25T05:10:07.506Z,25.85
2022-08-25T05:11:10.094Z,25.85
2022-08-25T05:12:12.054Z,25.87
2022-08-25T05:13:14.450Z,25.88
2022-08-25T05:14:16.303Z,25.90
2022-08-25T05:15:18.153Z,25.92
2022-08-25T05:16:20.367Z,25.93
2022-08-25T05:17:22.499Z,25.95
2022-08-25T05:18:24.486Z,25.95
2022-08-25T05:19:26.346Z,25.97
2022-08-25T05:20:28.502Z,25.98
2022-08-25T05:21:30.353Z,25.98
2022-08-25T05:22:32.214Z,25.99
2022-08-25T05:23:34.116Z,25.99
2022-08-25T05:24:35.998Z,26.01
2022-08-25T05:25:37.847Z,26.02
2022-08-25T05:26:40.027Z,26.02
2022-08-25T05:27:41.864Z,26.03
2022-08-25T05:28:44.265Z,26.05
2022-08-25T05:29:46.126Z,26.05
2022-08-25T05:30:48.062Z,26.07
2022-08-25T05:31:50.828Z,26.06
2022-08-25T05:32:52.845Z,26.08
2022-08-25T05:33:54.711Z,26.09
2022-08-25T05:34:56.543Z,26.11
2022-08-25T05:35:58.382Z,26.13
2022-08-25T05:37:00.424Z,26.15
2022-08-25T05:38:02.353Z,26.17
2022-08-25T05:39:04.246Z,26.18
2022-08-25T05:40:06.384Z,26.20
2022-08-25T05:41:08.201Z,26.20
2022-08-25T05:42:10.136Z,26.23
2022-08-25T05:43:11.984Z,26.24
2022-08-25T05:44:15.889Z,26.25
2022-08-25T05:45:20.657Z,26.27
2022-08-25T05:46:25.321Z,26.29
2022-08-25T05:47:27.208Z,26.31
2022-08-25T05:48:30.047Z,26.34
2022-08-25T05:49:31.927Z,26.37
2022-08-25T05:50:34.671Z,26.37
2022-08-25T05:51:36.505Z,26.38
2022-08-25T05:52:38.361Z,26.40
2022-08-25T05:53:40.198Z,26.41
2022-08-25T05:54:42.061Z,26.43
2022-08-25T05:55:45.083Z,26.45
2022-08-25T05:56:47.012Z,26.46
2022-08-25T05:57:48.842Z,26.48
2022-08-25T05:58:50.664Z,26.50
2022-08-25T05:59:52.557Z,26.51
2022-08-25T06:00:54.552Z,26.52
2022-08-25T06:01:56.338Z,26.55
2022-08-25T06:02:59.283Z,26.57
2022-08-25T06:04:01.174Z,26.60
2022-08-25T06:05:03.619Z,26.60
2022-08-25T06:06:05.561Z,26.61
2022-08-25T06:07:07.402Z,26.63
2022-08-25T06:08:09.228Z,26.64
2022-08-25T06:09:10.985Z,26.66
2022-08-25T06:10:13.200Z,26.68
2022-08-25T06:11:15.397Z,26.72
2022-08-25T06:12:17.229Z,26.74
2022-08-25T06:13:19.061Z,26.77
2022-08-25T06:14:22.708Z,26.75
2022-08-25T06:15:24.569Z,26.82
2022-08-25T06:16:26.769Z,26.84
2022-08-25T06:17:28.542Z,26.86
2022-08-25T06:18:30.382Z,26.88
2022-08-25T06:19:32.222Z,26.90
2022-08-25T06:20:35.190Z,26.93
2022-08-25T06:21:37.366Z,26.95
2022-08-25T06:22:39.197Z,26.98
2022-08-25T06:23:41.188Z,27.00
2022-08-25T06:24:43.022Z,27.04
2022-08-25T06:25:44.811Z,27.07
2022-08-25T06:26:46.821Z,27.10
2022-08-25T06:27:48.665Z,27.13
2022-08-25T06:28:50.411Z,27.17
2022-08-25T06:29:53.436Z,27.19
2022-08-25T06:30:56.030Z,27.21
2022-08-25T06:31:57.913Z,27.25
2022-08-25T06:32:59.716Z,27.28
2022-08-25T06:34:01.677Z,27.30
2022-08-25T06:35:03.539Z,27.32
2022-08-25T06:36:05.518Z,27.36
2022-08-25T06:37:07.373Z,27.38
2022-08-25T06:38:09.203Z,27.42
2022-08-25T06:39:11.045Z,27.44
2022-08-25T06:40:13.321Z,27.47
2022-08-25T06:41:15.174Z,27.49
2022-08-25T06:42:17.141Z,27.50
2022-08-25T06:43:19.011Z,27.53
2022-08-25T06:44:20.906Z,27.53
2022-08-25T06:45:22.679Z,27.58
2022-08-25T06:46:36.578Z,27.61
2022-08-25T06:47:28.982Z,27.62
2022-08-25T06:48:30.845Z,27.64
2022-08-25T06:49:35.987Z,27.66
2022-08-25T06:50:36.432Z,27.69
2022-08-25T06:51:38.325Z,27.73
2022-08-25T06:52:40.150Z,27.74
2022-08-25T06:53:41.985Z,27.78
2022-08-25T06:54:43.824Z,27.81
2022-08-25T06:55:47.501Z,27.84
2022-08-25T06:56:49.637Z,27.87
2022-08-25T06:57:51.865Z,27.90
2022-08-25T06:58:53.720Z,27.93
2022-08-25T06:59:55.541Z,27.96
2022-08-25T07:00:58.973Z,28.01
2022-08-25T07:02:00.897Z,28.03
2022-08-25T07:03:04.622Z,28.05
2022-08-25T07:04:10.336Z,28.08
2022-08-25T07:05:13.223Z,28.12
2022-08-25T07:06:14.271Z,28.14
2022-08-25T07:07:17.978Z,28.17
2022-08-25T07:08:19.819Z,28.20
2022-08-25T07:09:21.558Z,28.22
2022-08-25T07:10:24.446Z,28.25
2022-08-25T07:11:26.329Z,28.29
2022-08-25T07:12:28.214Z,28.32
2022-08-25T07:13:30.155Z,28.35
2022-08-25T07:14:31.984Z,28.38
2022-08-25T07:15:33.837Z,28.41
2022-08-25T07:16:36.095Z,28.45
2022-08-25T07:17:38.882Z,28.49
2022-08-25T07:18:40.918Z,28.52
2022-08-25T07:19:44.077Z,28.56
2022-08-25T07:20:46.217Z,28.61
2022-08-25T07:21:48.156Z,28.64
2022-08-25T07:22:51.801Z,28.68
2022-08-25T07:23:53.641Z,28.71
2022-08-25T07:24:55.498Z,28.75
2022-08-25T07:25:57.348Z,28.77
2022-08-25T07:26:59.266Z,28.81
2022-08-25T07:28:01.143Z,28.84
2022-08-25T07:29:04.375Z,28.87
2022-08-25T07:30:08.070Z,28.91
2022-08-25T07:31:10.291Z,28.94
2022-08-25T07:32:12.403Z,28.97
2022-08-25T07:33:14.311Z,29.01
2022-08-25T07:34:16.421Z,29.04
2022-08-25T07:35:19.092Z,29.07
2022-08-25T07:36:21.827Z,29.11
2022-08-25T07:37:47.671Z,29.12
2022-08-25T07:38:27.964Z,29.16
2022-08-25T07:39:30.000Z,29.19
2022-08-25T07:40:32.902Z,29.23
2022-08-25T07:41:34.694Z,29.24
2022-08-25T07:42:36.532Z,29.27
2022-08-25T07:43:39.561Z,29.30
2022-08-25T07:44:41.510Z,29.30
2022-08-25T07:45:49.304Z,29.33
2022-08-25T07:46:50.290Z,29.34
2022-08-25T07:47:52.345Z,29.38
2022-08-25T07:48:54.252Z,29.40
2022-08-25T07:49:56.134Z,29.43
2022-08-25T07:50:58.607Z,29.44
2022-08-25T07:52:04.482Z,29.46
2022-08-25T07:53:04.779Z,29.49
2022-08-25T07:54:06.672Z,29.51
2022-08-25T07:55:08.526Z,29.54
2022-08-25T07:56:12.617Z,29.54
2022-08-25T07:57:14.480Z,29.56
2022-08-25T07:58:16.335Z,29.57
2022-08-25T07:59:18.257Z,29.59
2022-08-25T08:00:20.489Z,29.59
2022-08-25T08:01:22.748Z,29.61
2022-08-25T08:02:25.390Z,29.62
2022-08-25T08:03:45.386Z,29.64
2022-08-25T08:04:30.927Z,29.64
2022-08-25T08:05:32.798Z,29.65
2022-08-25T08:06:34.926Z,29.68
2022-08-25T08:07:43.241Z,29.70
2022-08-25T08:08:41.353Z,29.69
2022-08-25T08:09:45.092Z,29.70
2022-08-25T08:11:04.908Z,29.72
2022-08-25T08:11:53.511Z,29.74
2022-08-25T08:12:55.135Z,29.74
2022-08-25T08:13:56.983Z,29.76
2022-08-25T08:14:58.926Z,29.77
2022-08-25T08:16:01.579Z,29.76
2022-08-25T08:17:03.432Z,29.78
2022-08-25T08:18:05.292Z,29.78
2022-08-25T08:19:08.965Z,29.78
2022-08-25T08:20:11.488Z,29.80
2022-08-25T08:21:13.351Z,29.82
2022-08-25T08:22:17.019Z,29.83
2022-08-25T08:23:19.702Z,29.84
2022-08-25T08:24:44.926Z,29.85
2022-08-25T08:25:27.283Z,29.88
2022-08-25T08:26:48.336Z,29.90
2022-08-25T08:27:33.165Z,29.92
2022-08-25T08:28:35.042Z,29.95
2022-08-25T08:29:36.922Z,29.96
2022-08-25T08:30:38.933Z,29.98
2022-08-25T08:31:40.910Z,29.99
2022-08-25T08:33:08.623Z,30.01
2022-08-25T08:33:48.213Z,30.01
2022-08-25T08:34:51.353Z,30.03
2022-08-25T08:35:53.626Z,30.05
2022-08-25T08:36:57.424Z,30.05
2022-08-25T08:37:59.318Z,30.07
2022-08-25T08:39:01.158Z,30.07
2022-08-25T08:40:03.583Z,30.08
2022-08-25T08:41:05.535Z,30.11
2022-08-25T08:42:11.390Z,30.12
2022-08-25T08:43:18.542Z,30.13
2022-08-25T08:44:14.939Z,30.14
2022-08-25T08:45:16.798Z,30.17
2022-08-25T08:46:19.045Z,30.19
2022-08-25T08:47:21.010Z,30.20
2022-08-25T08:48:24.393Z,30.21
2022-08-25T08:49:27.883Z,30.23
2022-08-25T08:50:32.997Z,30.25
2022-08-25T08:51:34.378Z,30.28
2022-08-25T08:52:36.269Z,30.30
2022-08-25T08:53:38.951Z,30.32
2022-08-25T08:54:41.222Z,30.33
2022-08-25T08:55:43.258Z,30.36
2022-08-25T08:56:48.186Z,30.37
2022-08-25T08:58:50.695Z,30.41
2022-08-25T08:59:52.539Z,30.42
2022-08-25T09:00:54.476Z,30.44
2022-08-25T09:01:56.475Z,30.44
2022-08-25T09:02:58.589Z,30.46
2022-08-25T09:04:00.462Z,30.48
2022-08-25T09:05:02.728Z,30.50
2022-08-25T09:06:06.781Z,30.51
2022-08-25T09:07:08.833Z,30.52
2022-08-25T09:08:11.867Z,30.55
2022-08-25T09:09:13.682Z,30.56
2022-08-25T09:10:15.876Z,30.57
2022-08-25T09:11:18.892Z,30.60
2022-08-25T09:12:21.024Z,30.61
2022-08-25T09:13:26.096Z,30.64
2022-08-25T09:14:30.417Z,30.66
2022-08-25T09:15:30.960Z,30.67
2022-08-25T09:16:34.918Z,30.68
2022-08-25T09:17:36.848Z,30.69
2022-08-25T09:18:50.732Z,30.70
2022-08-25T09:19:42.548Z,30.71
2022-08-25T09:20:44.408Z,30.72
2022-08-25T09:21:46.345Z,30.74
2022-08-25T09:22:48.976Z,30.75
2022-08-25T09:23:51.291Z,30.75
2022-08-25T09:24:53.156Z,30.79
2022-08-25T09:25:55.002Z,30.81
2022-08-25T09:26:56.965Z,30.81
2022-08-25T09:27:58.865Z,30.83
2022-08-25T09:29:01.436Z,30.83
2022-08-25T09:30:05.325Z,30.85
2022-08-25T09:31:07.167Z,30.88
2022-08-25T09:32:10.145Z,30.89
2022-08-25T09:33:13.855Z,30.91
2022-08-25T09:34:17.647Z,30.93
2022-08-25T09:35:19.512Z,30.96
2022-08-25T09:36:22.312Z,30.98
2022-08-25T09:37:25.296Z,31.01
2022-08-25T09:38:27.168Z,31.02
2022-08-25T09:39:29.004Z,31.04
2022-08-25T09:40:32.177Z,31.05
2022-08-25T09:41:34.113Z,31.07
2022-08-25T09:42:37.344Z,31.09
2022-08-25T09:43:39.379Z,31.12
2022-08-25T09:44:41.576Z,31.14
2022-08-25T09:45:43.404Z,31.16
2022-08-25T09:46:45.381Z,31.19
2022-08-25T09:47:47.988Z,31.21
2022-08-25T09:48:55.977Z,31.24
2022-08-25T09:49:53.573Z,31.25
2022-08-25T09:50:55.619Z,31.28
2022-08-25T09:51:57.442Z,31.31
2022-08-25T09:52:59.945Z,31.31
2022-08-25T09:54:10.824Z,31.32
2022-08-25T09:55:07.288Z,31.33
2022-08-25T09:56:09.643Z,31.34
2022-08-25T09:57:11.508Z,31.36
2022-08-25T09:58:13.869Z,31.37
2022-08-25T09:59:15.795Z,31.39
2022-08-25T10:00:18.450Z,31.41
2022-08-25T10:01:20.698Z,31.41
2022-08-25T10:02:23.995Z,31.43
2022-08-25T10:03:25.855Z,31.45
2022-08-25T10:04:27.766Z,31.47
2022-08-25T10:05:29.768Z,31.49
2022-08-25T10:06:32.098Z,31.52
2022-08-25T10:07:33.968Z,31.52
2022-08-25T10:08:35.824Z,31.54
2022-08-25T10:09:38.118Z,31.55
2022-08-25T10:10:42.096Z,31.55
2022-08-25T10:11:43.953Z,31.57
2022-08-25T10:12:45.826Z,31.59
2022-08-25T10:13:49.498Z,31.59
2022-08-25T10:14:54.557Z,31.61
2022-08-25T10:15:56.492Z,31.61
2022-08-25T10:16:58.849Z,31.62
2022-08-25T10:18:00.692Z,31.62
2022-08-25T10:19:02.559Z,31.65
2022-08-25T10:20:04.559Z,31.65
2022-08-25T10:21:07.526Z,31.65
2022-08-25T10:22:10.864Z,31.67
2022-08-25T10:23:13.023Z,31.69
2022-08-25T10:24:14.886Z,31.69
2022-08-25T10:25:17.595Z,31.71
2022-08-25T10:26:20.272Z,31.73
2022-08-25T10:27:22.156Z,31.74
2022-08-25T10:28:24.027Z,31.76
2022-08-25T10:29:25.889Z,31.77
2022-08-25T10:30:29.201Z,31.79
2022-08-25T10:31:33.099Z,31.81
2022-08-25T10:32:35.689Z,31.84
2022-08-25T10:33:37.539Z,31.83
2022-08-25T10:34:39.901Z,31.86
2022-08-25T10:35:43.607Z,31.86
2022-08-25T10:36:47.051Z,31.88
2022-08-25T10:37:49.311Z,31.90
2022-08-25T10:38:51.567Z,31.92
2022-08-25T10:39:55.467Z,31.93
2022-08-25T10:40:57.259Z,31.95
2022-08-25T10:41:59.229Z,31.97
2022-08-25T10:43:02.340Z,31.98
2022-08-25T10:44:04.279Z,32.01
2022-08-25T10:45:06.129Z,32.01
2022-08-25T10:46:08.286Z,32.01
2022-08-25T10:47:11.208Z,32.02
2022-08-25T10:48:13.075Z,32.04
2022-08-25T10:49:14.927Z,32.03
2022-08-25T10:50:16.983Z,32.04
2022-08-25T10:51:24.874Z,32.03
2022-08-25T10:52:23.548Z,32.03
2022-08-25T10:53:25.420Z,32.03
2022-08-25T10:54:27.582Z,32.01
2022-08-25T10:55:29.466Z,32.03
2022-08-25T10:56:31.460Z,32.04
2022-08-25T10:57:33.334Z,32.03
2022-08-25T10:58:37.008Z,32.04
2022-08-25T10:59:38.862Z,32.05
2022-08-25T11:00:41.034Z,32.04
2022-08-25T11:01:44.856Z,32.04
2022-08-25T11:02:48.509Z,32.04
2022-08-25T11:03:50.384Z,32.05
2022-08-25T11:04:53.078Z,32.05
2022-08-25T11:05:56.667Z,32.05
2022-08-25T11:06:58.667Z,32.06
2022-08-25T11:08:00.760Z,32.08
2022-08-25T11:09:02.631Z,32.07
2022-08-25T11:10:06.601Z,32.07
2022-08-25T11:11:08.464Z,32.08
2022-08-25T11:12:10.365Z,32.08
2022-08-25T11:13:12.225Z,32.06
2022-08-25T11:14:14.078Z,32.06
2022-08-25T11:15:15.949Z,32.07
2022-08-25T11:16:19.650Z,32.09
2022-08-25T11:17:21.746Z,32.10
2022-08-25T11:18:23.671Z,32.10
2022-08-25T11:19:26.350Z,32.10
2022-08-25T11:20:30.032Z,32.11
2022-08-25T11:21:31.911Z,32.11
2022-08-25T11:22:35.612Z,32.11
2022-08-25T11:23:38.482Z,32.11
2022-08-25T11:24:40.447Z,32.11
2022-08-25T11:25:42.917Z,32.11
2022-08-25T11:26:44.871Z,32.12
2022-08-25T11:27:46.768Z,32.13
2022-08-25T11:28:48.629Z,32.15
2022-08-25T11:29:50.488Z,32.18
2022-08-25T11:30:52.546Z,32.19
2022-08-25T11:31:54.467Z,32.19
2022-08-25T11:32:56.374Z,32.21
2022-08-25T11:33:58.232Z,32.22
2022-08-25T11:35:01.129Z,32.22
2022-08-25T11:36:03.786Z,32.22
2022-08-25T11:37:05.640Z,32.23
2022-08-25T11:38:09.343Z,32.23
2022-08-25T11:39:11.998Z,32.23
2022-08-25T11:40:14.522Z,32.24
2022-08-25T11:41:16.351Z,32.25
2022-08-25T11:42:18.215Z,32.24
2022-08-25T11:43:20.310Z,32.23
2022-08-25T11:44:23.999Z,32.22
2022-08-25T11:45:25.964Z,32.22
2022-08-25T11:46:29.511Z,32.23
2022-08-25T11:47:31.316Z,32.25
2022-08-25T11:48:33.202Z,32.26
2022-08-25T11:49:35.785Z,32.26
2022-08-25T11:50:37.758Z,32.27
2022-08-25T11:51:39.687Z,32.28
2022-08-25T11:52:41.502Z,32.29
2022-08-25T11:53:43.503Z,32.28
2022-08-25T11:54:46.558Z,32.28
2022-08-25T11:55:48.467Z,32.31
2022-08-25T11:56:50.428Z,32.32
2022-08-25T11:57:53.568Z,32.33
2022-08-25T11:58:55.643Z,32.34
2022-08-25T11:59:57.497Z,32.36
2022-08-25T12:00:59.771Z,32.37
2022-08-25T12:02:01.947Z,32.37
2022-08-25T12:03:04.924Z,32.37
2022-08-25T12:04:06.885Z,32.38
2022-08-25T12:05:10.659Z,32.40
2022-08-25T12:06:13.984Z,32.40
2022-08-25T12:07:16.066Z,32.42
2022-08-25T12:08:18.624Z,32.42
2022-08-25T12:09:20.722Z,32.41
2022-08-25T12:10:41.432Z,32.40
2022-08-25T12:11:43.182Z,32.40
2022-08-25T12:12:45.037Z,32.41
2022-08-25T12:13:46.852Z,32.40
2022-08-25T12:14:48.951Z,32.40
2022-08-25T12:15:50.782Z,32.41
2022-08-25T12:16:52.867Z,32.40
2022-08-25T12:17:54.672Z,32.42
2022-08-25T12:18:56.508Z,32.43
2022-08-25T12:19:58.358Z,32.46
2022-08-25T12:21:00.188Z,32.47
2022-08-25T12:22:03.389Z,32.47
2022-08-25T12:23:05.804Z,32.48
2022-08-25T12:24:07.636Z,32.49
2022-08-25T12:25:09.607Z,32.48
2022-08-25T12:26:11.927Z,32.48
2022-08-25T12:27:13.781Z,32.48
2022-08-25T12:28:15.628Z,32.46
2022-08-25T12:29:17.457Z,32.45
2022-08-25T12:30:21.911Z,32.45
2022-08-25T12:31:23.859Z,32.46
2022-08-25T12:32:25.745Z,32.46
2022-08-25T12:33:29.306Z,32.46
2022-08-25T12:34:31.325Z,32.47
2022-08-25T12:35:33.194Z,32.47
2022-08-25T12:36:35.671Z,32.45
2022-08-25T12:37:37.431Z,32.46
2022-08-25T12:38:43.172Z,32.46
2022-08-25T12:39:43.526Z,32.46
2022-08-25T12:40:45.615Z,32.47
2022-08-25T12:41:48.600Z,32.46
2022-08-25T12:42:52.195Z,32.46
2022-08-25T12:43:54.038Z,32.46
2022-08-25T12:44:55.858Z,32.46
2022-08-25T12:45:59.601Z,32.46
2022-08-25T12:47:03.194Z,32.45
2022-08-25T12:48:06.167Z,32.46
2022-08-25T12:49:08.002Z,32.46
2022-08-25T12:50:10.132Z,32.46
2022-08-25T12:51:12.013Z,32.47
2022-08-25T12:52:13.861Z,32.47
2022-08-25T12:53:15.693Z,32.46
2022-08-25T12:54:19.083Z,32.46
2022-08-25T12:55:21.165Z,32.44
2022-08-25T12:56:24.949Z,32.46
2022-08-25T12:57:29.955Z,32.46
2022-08-25T12:58:49.608Z,32.46
2022-08-25T12:59:34.126Z,32.41
2022-08-25T13:00:36.275Z,32.41
2022-08-25T13:01:38.277Z,32.44
2022-08-25T13:02:40.422Z,32.44
2022-08-25T13:04:45.678Z,32.47
2022-08-25T13:05:49.334Z,32.46
2022-08-25T13:06:51.629Z,32.42
2022-08-25T13:07:53.483Z,32.46
2022-08-25T13:08:56.457Z,32.47
2022-08-25T13:09:58.225Z,32.47
2022-08-25T13:11:00.381Z,32.47
2022-08-25T13:12:02.263Z,32.47
2022-08-25T13:13:04.682Z,32.47
2022-08-25T13:14:06.510Z,32.47
2022-08-25T13:15:08.341Z,32.48
2022-08-25T13:16:10.945Z,32.48
2022-08-25T13:17:12.768Z,32.48
2022-08-25T13:18:14.723Z,32.49
2022-08-25T13:19:18.361Z,32.49
2022-08-25T13:20:22.262Z,32.48
2022-08-25T13:21:24.594Z,32.50
2022-08-25T13:22:26.472Z,32.49
2022-08-25T13:23:29.829Z,32.50
2022-08-25T13:24:32.064Z,32.50